Saguenay, Canada
Current Conditions -  °F | °C
As of 5:00 AM on Tuesday 27 Jan 2015 (Local Time) from CYBG Reporting Station
Broken Clouds Broken Clouds  
Wind Chill: -24°   Ceiling: 24000
Heat Index: -24°   Visibility: 25mi
Dew Point: -29°   Wind: 0mph
Humidity: 76%   Direction: NA
Pressure: 30.35"   Gusts: NA
Location:  48.42°N, 71.07°W
Report Text: CYBG 271000Z 00000KT 25SM BKN240 M31/M34 A3035 RMK CI3 SLP299
Loading
Personal Weather Stations






























Interactive Weather Map New forecast layout! Learn more

10-Day Weather Forecast

Advertisements
Track Severe Weather on mobile